createdAt,value
2023-03-24T00:00:24.758Z,80.30
2023-03-24T00:02:52.675Z,80.29
2023-03-24T00:05:22.414Z,80.01
2023-03-24T00:07:54.808Z,80.18
2023-03-24T00:10:23.141Z,79.95
2023-03-24T00:12:51.130Z,80.25
2023-03-24T00:15:21.362Z,80.18
2023-03-24T00:17:52.523Z,79.92
2023-03-24T00:20:22.463Z,80.12
2023-03-24T00:22:51.424Z,80.19
2023-03-24T00:25:20.659Z,79.72
2023-03-24T00:27:49.198Z,79.59
2023-03-24T00:30:18.328Z,79.85
2023-03-24T00:32:46.520Z,79.70
2023-03-24T00:35:14.972Z,79.60
2023-03-24T00:37:43.090Z,79.68
2023-03-24T00:40:13.055Z,79.51
2023-03-24T00:42:45.937Z,79.53
2023-03-24T00:45:18.443Z,79.44
2023-03-24T00:47:45.792Z,79.22
2023-03-24T00:50:17.408Z,79.48
2023-03-24T00:52:48.402Z,79.44
2023-03-24T00:55:16.746Z,79.31
2023-03-24T00:57:52.966Z,79.16
2023-03-24T01:00:24.783Z,79.06
2023-03-24T01:02:55.798Z,78.91
2023-03-24T01:05:24.989Z,78.83
2023-03-24T01:07:52.533Z,78.85
2023-03-24T01:10:21.893Z,79.04
2023-03-24T01:12:49.122Z,78.93
2023-03-24T01:15:19.122Z,78.75
2023-03-24T01:17:48.897Z,78.59
2023-03-24T01:20:16.793Z,78.69
2023-03-24T01:22:46.433Z,78.59
2023-03-24T01:25:18.740Z,78.81
2023-03-24T01:27:49.476Z,78.75
2023-03-24T01:30:18.495Z,78.52
2023-03-24T01:32:45.572Z,78.68
2023-03-24T01:35:13.324Z,78.27
2023-03-24T01:37:40.532Z,78.43
2023-03-24T01:40:10.181Z,78.26
2023-03-24T01:42:39.281Z,78.40
2023-03-24T01:45:34.305Z,78.58
2023-03-24T01:48:01.440Z,78.62
2023-03-24T01:50:30.151Z,78.50
2023-03-24T01:52:57.323Z,78.64
2023-03-24T01:55:24.553Z,78.29
2023-03-24T01:57:56.276Z,78.42
2023-03-24T02:00:28.213Z,78.66
2023-03-24T02:03:26.049Z,78.34
2023-03-24T02:06:02.554Z,78.46
2023-03-24T02:08:53.482Z,78.66
2023-03-24T02:11:22.480Z,78.66
2023-03-24T02:13:53.666Z,78.57
2023-03-24T02:16:41.224Z,78.35
2023-03-24T02:19:27.319Z,78.40
2023-03-24T02:22:21.594Z,78.75
2023-03-24T02:25:06.219Z,78.79
2023-03-24T02:28:10.001Z,78.60
2023-03-24T02:30:42.974Z,78.64
2023-03-24T02:33:26.396Z,78.71
2023-03-24T02:36:08.350Z,78.88
2023-03-24T02:39:10.056Z,78.70
2023-03-24T02:41:56.170Z,78.68
2023-03-24T02:44:29.644Z,78.53
2023-03-24T02:47:37.873Z,78.96
2023-03-24T02:50:23.785Z,78.76
2023-03-24T02:53:00.326Z,78.68
2023-03-24T02:55:34.428Z,78.93
2023-03-24T02:58:04.525Z,78.76
2023-03-24T03:00:52.705Z,79.01
2023-03-24T03:03:43.404Z,78.90
2023-03-24T03:06:17.881Z,78.65
2023-03-24T03:08:47.863Z,78.90
2023-03-24T03:11:16.382Z,78.97
2023-03-24T03:13:56.786Z,79.08
2023-03-24T03:16:34.697Z,79.06
2023-03-24T03:19:03.873Z,79.31
2023-03-24T03:21:35.613Z,79.09
2023-03-24T03:24:07.183Z,79.09
2023-03-24T03:26:34.689Z,79.58
2023-03-24T03:29:05.724Z,79.47
2023-03-24T03:31:42.104Z,79.25
2023-03-24T03:34:19.357Z,79.61
2023-03-24T03:37:05.046Z,79.43
2023-03-24T03:39:35.111Z,79.76
2023-03-24T03:42:06.671Z,79.87
2023-03-24T03:44:33.931Z,80.00
2023-03-24T03:47:00.861Z,80.00
2023-03-24T03:49:37.914Z,80.19
2023-03-24T03:52:05.636Z,80.31
2023-03-24T03:54:34.421Z,80.09
2023-03-24T03:57:01.846Z,80.22
2023-03-24T03:59:37.678Z,80.26
2023-03-24T04:02:28.165Z,80.30
2023-03-24T04:05:26.677Z,80.84
2023-03-24T04:08:26.374Z,80.51
2023-03-24T04:11:26.281Z,80.63
2023-03-24T04:14:48.696Z,81.13
2023-03-24T04:18:10.608Z,81.34
2023-03-24T04:21:06.977Z,81.58
2023-03-24T04:23:50.055Z,81.38
2023-03-24T04:26:29.249Z,81.66
2023-03-24T04:29:18.244Z,81.75
2023-03-24T04:31:54.130Z,81.79
2023-03-24T04:34:51.083Z,81.77
2023-03-24T04:37:38.948Z,81.72
2023-03-24T04:40:17.584Z,81.90
2023-03-24T04:42:47.875Z,81.88
2023-03-24T04:45:15.322Z,82.14
2023-03-24T04:48:04.354Z,81.82
2023-03-24T04:50:40.276Z,81.76
2023-03-24T04:53:12.964Z,81.92
2023-03-24T04:55:50.361Z,82.01
2023-03-24T04:58:40.711Z,82.26
2023-03-24T05:01:09.267Z,82.16
2023-03-24T05:03:38.285Z,82.21
2023-03-24T05:06:08.719Z,82.29
2023-03-24T05:08:35.575Z,82.25
2023-03-24T05:11:02.408Z,82.30
2023-03-24T05:13:31.938Z,82.09
2023-03-24T05:16:01.765Z,82.00
2023-03-24T05:18:34.617Z,81.65
2023-03-24T05:21:02.274Z,81.73
2023-03-24T05:23:29.135Z,81.66
2023-03-24T05:25:57.040Z,81.80
2023-03-24T05:28:29.514Z,81.50
2023-03-24T05:30:59.561Z,81.69
2023-03-24T05:33:48.934Z,81.59
2023-03-24T05:36:18.817Z,81.55
2023-03-24T05:38:53.882Z,81.53
2023-03-24T05:41:21.619Z,81.54
2023-03-24T05:43:48.501Z,81.39
2023-03-24T05:46:16.773Z,81.45
2023-03-24T05:48:45.139Z,81.44
2023-03-24T05:51:16.650Z,81.51
2023-03-24T05:53:44.528Z,81.42
2023-03-24T05:56:17.836Z,81.75
2023-03-24T05:59:03.843Z,81.64
2023-03-24T06:01:59.802Z,81.59
2023-03-24T06:04:36.910Z,81.71
2023-03-24T06:07:11.778Z,81.69
2023-03-24T06:09:43.705Z,81.51
2023-03-24T06:12:13.911Z,81.55
2023-03-24T06:14:49.329Z,81.51
2023-03-24T06:17:18.732Z,81.67
2023-03-24T06:19:50.682Z,81.77
2023-03-24T06:23:26.338Z,81.34
2023-03-24T06:26:23.082Z,81.56
2023-03-24T06:32:15.604Z,81.26
2023-03-24T06:34:46.790Z,81.51
2023-03-24T06:38:00.409Z,81.37
2023-03-24T06:40:31.393Z,81.33
2023-03-24T06:42:59.061Z,81.27
2023-03-24T06:45:26.552Z,81.59
2023-03-24T06:47:56.414Z,81.29
2023-03-24T06:50:27.041Z,81.14
2023-03-24T06:52:55.239Z,81.00
2023-03-24T06:55:37.601Z,81.07
2023-03-24T06:58:07.290Z,81.39
2023-03-24T07:01:00.347Z,81.62
2023-03-24T07:04:02.177Z,81.37
2023-03-24T07:07:02.102Z,81.66
2023-03-24T07:09:36.488Z,81.50
2023-03-24T07:12:14.896Z,81.84
2023-03-24T07:14:47.102Z,81.52
2023-03-24T07:17:14.137Z,81.72
2023-03-24T07:19:59.333Z,81.44
2023-03-24T07:22:41.202Z,81.28
2023-03-24T07:25:26.090Z,81.15
2023-03-24T07:28:00.413Z,81.32
2023-03-24T07:30:37.319Z,81.05
2023-03-24T07:33:07.891Z,81.15
2023-03-24T07:35:35.447Z,80.74
2023-03-24T07:38:03.024Z,80.47
2023-03-24T07:40:30.939Z,80.85
2023-03-24T07:43:02.001Z,80.77
2023-03-24T07:45:46.010Z,80.31
2023-03-24T07:48:16.164Z,80.02
2023-03-24T07:50:43.258Z,79.88
2023-03-24T07:53:30.932Z,79.89
2023-03-24T07:55:58.298Z,79.52
2023-03-24T07:58:28.181Z,79.38
2023-03-24T08:01:17.465Z,79.45
2023-03-24T08:04:00.691Z,79.44
2023-03-24T08:07:53.094Z,79.67
2023-03-24T08:10:40.682Z,79.68
2023-03-24T08:21:02.382Z,80.54
2023-03-24T08:31:39.150Z,80.97
2023-03-24T08:34:11.837Z,81.12
2023-03-24T08:36:38.654Z,80.70
2023-03-24T08:39:09.985Z,80.80
2023-03-24T08:41:37.012Z,80.91
2023-03-24T08:44:07.039Z,80.62
2023-03-24T08:46:36.146Z,80.65
2023-03-24T08:49:04.386Z,80.48
2023-03-24T08:51:32.379Z,80.63
2023-03-24T08:54:15.403Z,80.22
2023-03-24T08:56:56.194Z,80.49
2023-03-24T08:59:47.757Z,79.93
2023-03-24T09:02:22.601Z,79.91
2023-03-24T09:04:54.889Z,79.71
2023-03-24T09:07:34.287Z,79.72
2023-03-24T09:10:07.684Z,79.46
2023-03-24T09:12:45.360Z,79.30
2023-03-24T09:15:13.614Z,79.13
2023-03-24T09:17:41.732Z,79.15
2023-03-24T09:20:18.892Z,79.23
2023-03-24T09:23:10.594Z,79.06
2023-03-24T09:25:58.232Z,78.75
2023-03-24T09:28:30.036Z,78.64
2023-03-24T09:31:02.172Z,78.86
2023-03-24T09:33:30.490Z,78.79
2023-03-24T09:36:00.153Z,78.44
2023-03-24T09:38:28.405Z,78.50
2023-03-24T09:40:58.086Z,78.58
2023-03-24T09:43:44.474Z,78.20
2023-03-24T09:46:28.728Z,78.18
2023-03-24T09:49:02.286Z,77.90
2023-03-24T09:51:49.405Z,77.76
2023-03-24T09:54:27.498Z,77.54
2023-03-24T09:56:55.676Z,77.59
2023-03-24T09:59:29.517Z,76.93
2023-03-24T10:01:56.807Z,76.75
2023-03-24T10:04:26.561Z,76.80
2023-03-24T10:07:01.842Z,76.84
2023-03-24T10:09:30.680Z,76.60
2023-03-24T10:12:08.041Z,76.58
2023-03-24T10:14:47.444Z,76.20
2023-03-24T10:17:33.486Z,76.01
2023-03-24T10:20:36.368Z,75.67
2023-03-24T10:23:11.320Z,75.32
2023-03-24T10:26:03.084Z,75.00
2023-03-24T10:28:45.394Z,75.09
2023-03-24T10:31:15.708Z,74.54
2023-03-24T10:33:48.400Z,73.99
2023-03-24T10:36:20.798Z,73.80
2023-03-24T10:38:48.294Z,73.39
2023-03-24T10:41:21.330Z,72.95
2023-03-24T10:43:49.715Z,72.75
2023-03-24T10:46:20.667Z,72.02
2023-03-24T10:48:50.255Z,71.30
2023-03-24T10:51:29.174Z,70.78
2023-03-24T10:54:20.025Z,70.45
2023-03-24T10:57:07.251Z,69.80
2023-03-24T10:59:37.946Z,70.24
2023-03-24T11:02:11.361Z,69.56
2023-03-24T11:04:39.674Z,69.79
2023-03-24T11:07:15.273Z,69.76
2023-03-24T11:09:46.391Z,69.34
2023-03-24T11:12:27.119Z,69.42
2023-03-24T11:15:14.171Z,69.70
2023-03-24T11:17:58.651Z,69.63
2023-03-24T11:20:30.054Z,69.99
2023-03-24T11:23:20.254Z,69.96
2023-03-24T11:29:41.608Z,70.01
2023-03-24T11:32:14.090Z,69.83
2023-03-24T11:34:47.577Z,69.44
2023-03-24T11:37:23.584Z,69.66
2023-03-24T11:40:17.719Z,69.44
2023-03-24T11:42:46.533Z,68.96
2023-03-24T11:45:28.203Z,68.93
2023-03-24T11:47:59.301Z,68.67
2023-03-24T11:50:29.415Z,69.01
2023-03-24T11:53:19.020Z,68.28
2023-03-24T11:55:58.313Z,67.86
2023-03-24T11:58:46.613Z,67.49
2023-03-24T12:01:26.514Z,66.52
2023-03-24T12:04:05.552Z,65.91
2023-03-24T12:07:10.151Z,65.24
2023-03-24T12:09:45.790Z,65.47
2023-03-24T12:12:33.632Z,65.38
2023-03-24T12:15:26.613Z,64.57
2023-03-24T12:18:18.275Z,63.45
2023-03-24T12:21:19.255Z,61.65
2023-03-24T12:24:14.621Z,61.72
2023-03-24T12:26:42.732Z,61.10
2023-03-24T12:29:47.802Z,60.79
2023-03-24T12:32:39.473Z,61.11
2023-03-24T12:35:25.012Z,61.02
2023-03-24T12:38:10.610Z,61.65
2023-03-24T12:41:04.655Z,61.41
2023-03-24T12:44:17.502Z,61.57
2023-03-24T12:47:08.508Z,61.97
2023-03-24T12:49:56.508Z,62.40
2023-03-24T12:52:42.301Z,62.29
2023-03-24T12:55:21.291Z,62.43
2023-03-24T12:57:53.132Z,62.14
2023-03-24T13:00:28.189Z,61.92
2023-03-24T13:03:01.559Z,61.38
2023-03-24T13:05:33.575Z,61.04
2023-03-24T13:08:04.240Z,60.85
2023-03-24T13:10:40.809Z,60.66
2023-03-24T13:13:16.630Z,59.66
2023-03-24T13:15:50.188Z,57.47
2023-03-24T13:18:22.156Z,56.07
2023-03-24T13:20:56.274Z,55.12
2023-03-24T13:23:35.593Z,52.87
2023-03-24T13:26:14.287Z,51.63
2023-03-24T13:28:59.362Z,51.96
2023-03-24T13:31:27.778Z,51.43
2023-03-24T13:33:54.937Z,51.53
2023-03-24T13:36:39.392Z,51.94
2023-03-24T13:39:10.250Z,52.10
2023-03-24T13:41:44.369Z,52.61
2023-03-24T13:44:20.460Z,52.78
2023-03-24T13:47:10.616Z,52.95
2023-03-24T13:49:38.877Z,53.22
2023-03-24T13:52:07.701Z,53.33
2023-03-24T13:54:37.244Z,53.58
2023-03-24T13:57:11.852Z,53.69
2023-03-24T14:00:11.756Z,53.70
2023-03-24T14:02:49.697Z,54.19
2023-03-24T14:05:23.103Z,54.56
2023-03-24T14:07:51.678Z,54.66
2023-03-24T14:10:24.442Z,54.59
2023-03-24T14:13:00.748Z,54.93
2023-03-24T14:15:47.782Z,54.83
2023-03-24T14:18:24.267Z,55.08
2023-03-24T14:21:09.805Z,55.27
2023-03-24T14:23:39.349Z,55.33
2023-03-24T14:26:14.511Z,55.63
2023-03-24T14:28:43.084Z,54.87
2023-03-24T14:31:15.909Z,54.83
2023-03-24T14:34:11.129Z,54.64
2023-03-24T14:36:41.413Z,54.83
2023-03-24T14:39:33.575Z,54.45
2023-03-24T14:42:00.522Z,54.26
2023-03-24T14:44:46.841Z,54.05
2023-03-24T14:47:20.603Z,53.75
2023-03-24T14:49:48.679Z,53.71
2023-03-24T14:52:18.936Z,53.00
2023-03-24T14:54:53.795Z,52.64
2023-03-24T14:57:28.978Z,52.41
2023-03-24T15:00:22.758Z,52.36
2023-03-24T15:02:54.554Z,52.05
2023-03-24T15:05:28.642Z,51.89
2023-03-24T15:08:19.098Z,51.67
2023-03-24T15:10:50.511Z,51.72
2023-03-24T15:13:35.927Z,52.04
2023-03-24T15:16:19.407Z,51.79
2023-03-24T15:19:01.992Z,52.19
2023-03-24T15:21:35.029Z,52.14
2023-03-24T15:24:03.306Z,51.79
2023-03-24T15:26:32.063Z,51.72
2023-03-24T15:29:05.613Z,51.34
2023-03-24T15:31:35.286Z,51.58
2023-03-24T15:34:04.146Z,51.32
2023-03-24T15:36:38.296Z,51.22
2023-03-24T15:39:19.165Z,50.48
2023-03-24T15:41:46.735Z,50.09
2023-03-24T15:44:21.745Z,49.62
2023-03-24T15:46:49.228Z,49.25
2023-03-24T15:49:35.905Z,48.93
2023-03-24T15:52:07.280Z,48.74
2023-03-24T15:54:40.233Z,48.65
2023-03-24T15:57:16.296Z,49.12
2023-03-24T15:59:47.026Z,48.80
2023-03-24T16:02:26.364Z,48.81
2023-03-24T16:05:09.973Z,49.32
2023-03-24T16:07:40.900Z,50.31
2023-03-24T16:10:20.815Z,50.83
2023-03-24T16:12:47.612Z,51.18
2023-03-24T16:15:14.506Z,51.92
2023-03-24T16:17:41.523Z,52.08
2023-03-24T16:20:19.089Z,52.52
2023-03-24T16:22:48.169Z,52.72
2023-03-24T16:25:15.182Z,52.99
2023-03-24T16:27:41.941Z,52.67
2023-03-24T16:30:20.479Z,52.24
2023-03-24T16:32:47.474Z,51.92
2023-03-24T16:35:14.724Z,52.00
2023-03-24T16:37:42.690Z,52.68
2023-03-24T16:40:21.341Z,52.40
2023-03-24T16:42:50.633Z,52.50
2023-03-24T16:45:17.480Z,52.45
2023-03-24T16:47:44.471Z,52.93
2023-03-24T16:50:27.789Z,52.83
2023-03-24T16:52:54.659Z,53.30
2023-03-24T16:55:21.501Z,53.21
2023-03-24T16:57:48.407Z,53.62
2023-03-24T17:00:16.007Z,54.25
2023-03-24T17:02:48.546Z,54.45
2023-03-24T17:05:24.858Z,54.60
2023-03-24T17:07:52.102Z,54.76
2023-03-24T17:10:19.376Z,55.17
2023-03-24T17:12:47.536Z,55.07
2023-03-24T17:15:28.798Z,55.11
2023-03-24T17:17:56.610Z,55.52
2023-03-24T17:20:24.901Z,55.88
2023-03-24T17:22:54.235Z,56.17
2023-03-24T17:25:25.043Z,56.21
2023-03-24T17:27:51.964Z,56.62
2023-03-24T17:30:21.350Z,56.67
2023-03-24T17:32:48.631Z,56.99
2023-03-24T17:35:18.772Z,57.20
2023-03-24T17:37:46.399Z,57.21
2023-03-24T17:40:15.237Z,57.37
2023-03-24T17:42:46.236Z,57.25
2023-03-24T17:45:16.543Z,57.44
2023-03-24T17:47:45.909Z,57.75
2023-03-24T17:50:13.813Z,57.56
2023-03-24T17:52:44.444Z,57.61
2023-03-24T17:55:11.762Z,58.09
2023-03-24T17:57:38.707Z,57.97
2023-03-24T18:00:11.803Z,58.16
2023-03-24T18:02:43.207Z,58.13
2023-03-24T18:05:16.113Z,58.12
2023-03-24T18:07:43.031Z,57.94
2023-03-24T18:10:19.261Z,58.42
2023-03-24T18:12:46.356Z,58.19
2023-03-24T18:15:13.391Z,58.30
2023-03-24T18:17:40.982Z,58.42
2023-03-24T18:20:12.378Z,58.47
2023-03-24T18:22:41.257Z,58.51
2023-03-24T18:25:11.487Z,58.46
2023-03-24T18:27:39.039Z,58.58
2023-03-24T18:30:08.266Z,58.38
2023-03-24T18:32:36.089Z,58.33
2023-03-24T18:35:03.020Z,58.31
2023-03-24T18:37:29.871Z,58.84
2023-03-24T18:39:56.766Z,58.67
2023-03-24T18:42:23.505Z,58.92
2023-03-24T18:44:50.258Z,59.04
2023-03-24T18:47:17.841Z,59.09
2023-03-24T18:53:26.476Z,59.22
2023-03-24T18:58:52.918Z,59.40
2023-03-24T19:01:28.210Z,59.61
2023-03-24T19:04:00.993Z,59.95
2023-03-24T19:06:31.501Z,60.50
2023-03-24T19:08:59.745Z,60.51
2023-03-24T19:11:27.352Z,61.24
2023-03-24T19:13:56.769Z,60.62
2023-03-24T19:16:23.588Z,60.58
2023-03-24T19:18:54.973Z,60.87
2023-03-24T19:21:31.021Z,60.95
2023-03-24T19:24:29.392Z,61.05
2023-03-24T19:27:33.282Z,61.24
2023-03-24T19:30:26.681Z,61.45
2023-03-24T19:33:10.187Z,61.70
2023-03-24T19:35:56.169Z,62.18
2023-03-24T19:43:38.651Z,62.31
2023-03-24T19:49:59.858Z,62.92
2023-03-24T19:52:27.300Z,62.77
2023-03-24T19:59:16.956Z,63.47
2023-03-24T20:09:23.495Z,63.99
2023-03-24T20:13:37.949Z,63.79
2023-03-24T20:15:24.513Z,63.78
2023-03-24T20:18:26.739Z,63.29
2023-03-24T20:24:59.423Z,63.22
2023-03-24T20:27:28.820Z,63.26
2023-03-24T20:33:25.132Z,62.54
2023-03-24T20:35:53.140Z,62.49
2023-03-24T20:38:24.044Z,62.34
2023-03-24T20:41:06.160Z,62.13
2023-03-24T20:47:28.851Z,62.19
2023-03-24T21:01:52.176Z,63.44
2023-03-24T21:04:49.861Z,63.16
2023-03-24T21:07:22.483Z,63.44
2023-03-24T21:09:49.506Z,63.38
2023-03-24T21:12:16.629Z,63.64
2023-03-24T21:14:46.902Z,63.93
2023-03-24T21:17:34.915Z,63.79
2023-03-24T21:20:13.667Z,63.96
2023-03-24T21:23:03.610Z,64.50
2023-03-24T21:25:36.149Z,64.42
2023-03-24T21:28:03.760Z,64.55
2023-03-24T21:30:32.218Z,64.97
2023-03-24T21:32:59.762Z,65.17
2023-03-24T21:35:27.064Z,65.27
2023-03-24T21:37:54.763Z,65.39
2023-03-24T21:40:25.395Z,65.82
2023-03-24T21:42:54.067Z,65.83
2023-03-24T21:45:23.806Z,66.38
2023-03-24T21:47:51.222Z,66.33
2023-03-24T21:50:23.370Z,66.21
2023-03-24T21:52:55.615Z,66.63
2023-03-24T21:55:23.438Z,67.23
2023-03-24T21:57:51.296Z,67.04
2023-03-24T22:00:22.577Z,66.81
2023-03-24T22:02:52.764Z,66.82
2023-03-24T22:05:22.073Z,66.62
2023-03-24T22:07:50.291Z,66.85
2023-03-24T22:10:23.522Z,66.75
2023-03-24T22:12:51.616Z,66.64
2023-03-24T22:15:19.420Z,67.09
2023-03-24T22:17:46.820Z,66.80
2023-03-24T22:20:18.624Z,67.15
2023-03-24T22:22:51.953Z,67.02
2023-03-24T22:25:21.622Z,67.00
2023-03-24T22:27:51.338Z,67.22
2023-03-24T22:30:19.610Z,67.21
2023-03-24T22:32:46.690Z,67.45
2023-03-24T22:35:14.098Z,67.49
2023-03-24T22:37:41.201Z,67.36
2023-03-24T22:40:09.440Z,67.40
2023-03-24T22:42:36.697Z,67.74
2023-03-24T22:45:04.111Z,67.54
2023-03-24T22:47:31.168Z,67.69
2023-03-24T22:49:58.484Z,67.91
2023-03-24T22:52:36.699Z,67.84
2023-03-24T22:55:10.383Z,68.03
2023-03-24T22:57:40.606Z,68.03
2023-03-24T23:00:16.031Z,68.16
2023-03-24T23:05:43.729Z,68.09
2023-03-24T23:08:19.495Z,68.18
2023-03-24T23:10:50.648Z,68.18
2023-03-24T23:13:17.662Z,68.19
2023-03-24T23:15:49.474Z,68.06
2023-03-24T23:18:18.565Z,68.28
2023-03-24T23:20:50.801Z,68.12
2023-03-24T23:23:18.141Z,68.16
2023-03-24T23:25:51.902Z,68.28
2023-03-24T23:28:20.050Z,68.40
2023-03-24T23:30:49.592Z,68.33
2023-03-24T23:33:16.759Z,68.60
2023-03-24T23:35:47.296Z,68.49
2023-03-24T23:38:14.361Z,68.38
2023-03-24T23:40:41.618Z,68.34
2023-03-24T23:43:11.087Z,68.73
2023-03-24T23:45:48.336Z,68.52
2023-03-24T23:48:15.769Z,68.32
2023-03-24T23:50:46.471Z,68.58
2023-03-24T23:53:13.502Z,68.61
2023-03-24T23:55:43.527Z,68.74
2023-03-24T23:58:11.296Z,68.45
